sensor_id;sensor_type;location;lat;lon;timestamp;temperature;humidity
24085;DHT22;12268;52.110;5.548;2023-12-04T03:04:44;5.10;99.90
24085;DHT22;12268;52.110;5.548;2023-12-04T03:07:10;5.00;99.90
24085;DHT22;12268;52.110;5.548;2023-12-04T03:09:35;5.10;99.90
24085;DHT22;12268;52.110;5.548;2023-12-04T03:12:01;5.00;99.90
24085;DHT22;12268;52.110;5.548;2023-12-04T03:14:26;5.30;99.90
24085;DHT22;12268;52.110;5.548;2023-12-04T03:16:52;5.40;99.90
24085;DHT22;12268;52.110;5.548;2023-12-04T03:19:18;5.40;99.90
24085;DHT22;12268;52.110;5.548;2023-12-04T03:21:43;5.00;99.90
24085;DHT22;12268;52.110;5.548;2023-12-04T04:00:51;5.80;99.90
24085;DHT22;12268;52.110;5.548;2023-12-04T04:03:16;5.80;99.90
24085;DHT22;12268;52.110;5.548;2023-12-04T04:05:42;5.70;99.90
24085;DHT22;12268;52.110;5.548;2023-12-04T04:08:07;5.70;99.90
24085;DHT22;12268;52.110;5.548;2023-12-04T04:10:34;5.60;99.90
24085;DHT22;12268;52.110;5.548;2023-12-04T04:12:59;5.70;99.90
24085;DHT22;12268;52.110;5.548;2023-12-04T04:15:25;5.70;99.90
24085;DHT22;12268;52.110;5.548;2023-12-04T04:17:51;5.70;99.90
24085;DHT22;12268;52.110;5.548;2023-12-04T04:20:17;5.30;99.90
24085;DHT22;12268;52.110;5.548;2023-12-04T04:22:43;5.20;99.90
24085;DHT22;12268;52.110;5.548;2023-12-04T04:56:13;5.40;99.90
24085;DHT22;12268;52.110;5.548;2023-12-04T04:58:38;5.50;99.90
24085;DHT22;12268;52.110;5.548;2023-12-04T05:01:04;5.50;99.90
24085;DHT22;12268;52.110;5.548;2023-12-04T05:03:30;5.60;99.90
24085;DHT22;12268;52.110;5.548;2023-12-04T05:05:55;5.60;99.90
24085;DHT22;12268;52.110;5.548;2023-12-04T05:08:21;5.70;99.90
24085;DHT22;12268;52.110;5.548;2023-12-04T05:10:46;5.60;99.90
24085;DHT22;12268;52.110;5.548;2023-12-04T05:13:12;5.60;99.90
24085;DHT22;12268;52.110;5.548;2023-12-04T05:18:13;5.60;99.90
24085;DHT22;12268;52.110;5.548;2023-12-04T05:20:38;5.50;99.90
24085;DHT22;12268;52.110;5.548;2023-12-04T05:23:04;5.40;99.90
24085;DHT22;12268;52.110;5.548;2023-12-04T05:25:29;5.40;99.90
24085;DHT22;12268;52.110;5.548;2023-12-04T05:27:55;5.40;99.90
24085;DHT22;12268;52.110;5.548;2023-12-04T05:30:20;5.60;99.90
24085;DHT22;12268;52.110;5.548;2023-12-04T05:32:46;5.30;99.90
24085;DHT22;12268;52.110;5.548;2023-12-04T05:35:12;5.40;99.90
24085;DHT22;12268;52.110;5.548;2023-12-04T05:37:37;5.40;99.90
24085;DHT22;12268;52.110;5.548;2023-12-04T05:40:03;5.40;99.90
24085;DHT22;12268;52.110;5.548;2023-12-04T05:42:30;5.40;99.90
24085;DHT22;12268;52.110;5.548;2023-12-04T05:44:55;5.40;99.90
24085;DHT22;12268;52.110;5.548;2023-12-04T05:47:22;5.40;99.90
24085;DHT22;12268;52.110;5.548;2023-12-04T05:49:48;5.40;99.90
24085;DHT22;12268;52.110;5.548;2023-12-04T05:52:14;5.50;99.90
24085;DHT22;12268;52.110;5.548;2023-12-04T05:54:39;5.60;99.90
24085;DHT22;12268;52.110;5.548;2023-12-04T05:57:05;5.50;99.90
24085;DHT22;12268;52.110;5.548;2023-12-04T05:59:30;5.60;99.90
24085;DHT22;12268;52.110;5.548;2023-12-04T06:01:56;5.30;99.90
24085;DHT22;12268;52.110;5.548;2023-12-04T06:04:21;5.40;99.90
24085;DHT22;12268;52.110;5.548;2023-12-04T06:06:47;5.50;99.90
24085;DHT22;12268;52.110;5.548;2023-12-04T06:09:13;5.50;99.90
24085;DHT22;12268;52.110;5.548;2023-12-04T06:11:40;5.50;99.90
24085;DHT22;12268;52.110;5.548;2023-12-04T06:14:06;5.50;99.90
24085;DHT22;12268;52.110;5.548;2023-12-04T06:16:32;5.60;99.90
24085;DHT22;12268;52.110;5.548;2023-12-04T06:18:57;5.20;99.90
24085;DHT22;12268;52.110;5.548;2023-12-04T06:21:23;5.30;99.90
24085;DHT22;12268;52.110;5.548;2023-12-04T06:23:48;5.40;99.90
24085;DHT22;12268;52.110;5.548;2023-12-04T06:26:14;5.50;99.90
24085;DHT22;12268;52.110;5.548;2023-12-04T06:28:41;5.50;99.90
24085;DHT22;12268;52.110;5.548;2023-12-04T06:31:07;5.40;99.90
24085;DHT22;12268;52.110;5.548;2023-12-04T06:33:33;5.20;99.90
24085;DHT22;12268;52.110;5.548;2023-12-04T06:35:58;5.40;99.90
24085;DHT22;12268;52.110;5.548;2023-12-04T06:38:25;5.60;99.90
24085;DHT22;12268;52.110;5.548;2023-12-04T06:40:51;5.70;99.90
24085;DHT22;12268;52.110;5.548;2023-12-04T06:43:17;5.70;99.90
24085;DHT22;12268;52.110;5.548;2023-12-04T06:45:45;5.70;99.90
24085;DHT22;12268;52.110;5.548;2023-12-04T06:48:13;5.60;99.90
24085;DHT22;12268;52.110;5.548;2023-12-04T06:50:39;5.60;99.90
24085;DHT22;12268;52.110;5.548;2023-12-04T06:53:05;5.40;99.90
24085;DHT22;12268;52.110;5.548;2023-12-04T06:55:31;5.30;99.90
24085;DHT22;12268;52.110;5.548;2023-12-04T06:57:57;5.40;99.90
24085;DHT22;12268;52.110;5.548;2023-12-04T07:00:22;5.50;99.90
24085;DHT22;12268;52.110;5.548;2023-12-04T07:02:48;5.50;99.90
24085;DHT22;12268;52.110;5.548;2023-12-04T07:05:13;5.60;99.90
24085;DHT22;12268;52.110;5.548;2023-12-04T07:07:39;5.40;99.90
24085;DHT22;12268;52.110;5.548;2023-12-04T07:10:05;5.50;99.90
24085;DHT22;12268;52.110;5.548;2023-12-04T07:12:31;5.60;99.90
24085;DHT22;12268;52.110;5.548;2023-12-04T07:14:56;5.50;99.90
24085;DHT22;12268;52.110;5.548;2023-12-04T07:17:22;5.50;99.90
24085;DHT22;12268;52.110;5.548;2023-12-04T07:19:47;5.50;99.90
24085;DHT22;12268;52.110;5.548;2023-12-04T07:22:13;5.60;99.90
24085;DHT22;12268;52.110;5.548;2023-12-04T07:24:39;5.40;99.90
24085;DHT22;12268;52.110;5.548;2023-12-04T07:27:04;5.30;99.90
24085;DHT22;12268;52.110;5.548;2023-12-04T07:29:30;5.40;99.90
24085;DHT22;12268;52.110;5.548;2023-12-04T07:31:56;5.40;99.90
24085;DHT22;12268;52.110;5.548;2023-12-04T07:34:21;5.30;99.90
24085;DHT22;12268;52.110;5.548;2023-12-04T07:36:47;5.30;99.90
24085;DHT22;12268;52.110;5.548;2023-12-04T07:39:13;5.30;99.90
24085;DHT22;12268;52.110;5.548;2023-12-04T07:41:40;5.30;99.90
24085;DHT22;12268;52.110;5.548;2023-12-04T07:44:05;5.30;99.90
24085;DHT22;12268;52.110;5.548;2023-12-04T07:46:31;5.50;99.90
24085;DHT22;12268;52.110;5.548;2023-12-04T07:48:57;5.50;99.90
24085;DHT22;12268;52.110;5.548;2023-12-04T07:51:23;5.60;99.90
24085;DHT22;12268;52.110;5.548;2023-12-04T07:53:49;5.60;99.90
24085;DHT22;12268;52.110;5.548;2023-12-04T07:56:14;5.60;99.90
24085;DHT22;12268;52.110;5.548;2023-12-04T07:58:40;5.70;99.90
24085;DHT22;12268;52.110;5.548;2023-12-04T08:01:05;5.70;99.90
24085;DHT22;12268;52.110;5.548;2023-12-04T08:03:31;5.60;99.90
24085;DHT22;12268;52.110;5.548;2023-12-04T08:05:57;5.50;99.90
24085;DHT22;12268;52.110;5.548;2023-12-04T08:08:24;5.60;99.90
24085;DHT22;12268;52.110;5.548;2023-12-04T08:10:50;5.70;99.90
24085;DHT22;12268;52.110;5.548;2023-12-04T08:13:16;5.60;99.90
24085;DHT22;12268;52.110;5.548;2023-12-04T08:15:42;5.80;99.90
24085;DHT22;12268;52.110;5.548;2023-12-04T08:18:08;6.00;99.90
24085;DHT22;12268;52.110;5.548;2023-12-04T08:20:34;6.10;99.90
24085;DHT22;12268;52.110;5.548;2023-12-04T08:22:59;6.00;99.90
24085;DHT22;12268;52.110;5.548;2023-12-04T08:25:25;6.00;99.90
24085;DHT22;12268;52.110;5.548;2023-12-04T08:27:51;6.10;99.90
24085;DHT22;12268;52.110;5.548;2023-12-04T08:30:16;5.90;99.90
24085;DHT22;12268;52.110;5.548;2023-12-04T08:32:42;5.80;99.90
24085;DHT22;12268;52.110;5.548;2023-12-04T08:35:08;5.90;99.90
24085;DHT22;12268;52.110;5.548;2023-12-04T08:37:33;5.50;99.90
24085;DHT22;12268;52.110;5.548;2023-12-04T08:39:59;5.50;99.90
24085;DHT22;12268;52.110;5.548;2023-12-04T08:42:25;5.60;99.90
24085;DHT22;12268;52.110;5.548;2023-12-04T08:44:51;5.60;99.90
24085;DHT22;12268;52.110;5.548;2023-12-04T08:47:17;5.40;99.90
24085;DHT22;12268;52.110;5.548;2023-12-04T08:49:43;5.60;99.90
24085;DHT22;12268;52.110;5.548;2023-12-04T08:52:09;5.40;99.90
24085;DHT22;12268;52.110;5.548;2023-12-04T08:54:35;5.50;99.90
24085;DHT22;12268;52.110;5.548;2023-12-04T08:57:04;5.70;99.90
24085;DHT22;12268;52.110;5.548;2023-12-04T08:59:29;5.80;99.90
24085;DHT22;12268;52.110;5.548;2023-12-04T09:01:55;6.10;99.90
24085;DHT22;12268;52.110;5.548;2023-12-04T09:04:20;6.10;99.90
24085;DHT22;12268;52.110;5.548;2023-12-04T09:06:46;6.30;99.90
24085;DHT22;12268;52.110;5.548;2023-12-04T09:09:11;6.20;99.90
24085;DHT22;12268;52.110;5.548;2023-12-04T09:11:41;6.40;99.90
24085;DHT22;12268;52.110;5.548;2023-12-04T09:14:08;6.30;99.90
24085;DHT22;12268;52.110;5.548;2023-12-04T09:16:33;6.50;99.90
24085;DHT22;12268;52.110;5.548;2023-12-04T09:18:59;6.30;99.90
24085;DHT22;12268;52.110;5.548;2023-12-04T09:21:25;6.10;99.90
24085;DHT22;12268;52.110;5.548;2023-12-04T09:23:52;6.30;99.90
24085;DHT22;12268;52.110;5.548;2023-12-04T09:26:18;6.60;99.90
24085;DHT22;12268;52.110;5.548;2023-12-04T09:28:44;6.60;99.90
24085;DHT22;12268;52.110;5.548;2023-12-04T09:31:09;6.80;99.90
24085;DHT22;12268;52.110;5.548;2023-12-04T09:33:35;6.90;99.90
24085;DHT22;12268;52.110;5.548;2023-12-04T09:36:02;6.70;99.90
24085;DHT22;12268;52.110;5.548;2023-12-04T09:38:28;6.80;99.90
24085;DHT22;12268;52.110;5.548;2023-12-04T09:40:57;7.00;99.90
24085;DHT22;12268;52.110;5.548;2023-12-04T09:43:25;7.20;99.90
24085;DHT22;12268;52.110;5.548;2023-12-04T09:45:51;7.20;99.90
24085;DHT22;12268;52.110;5.548;2023-12-04T09:48:17;7.20;99.90
24085;DHT22;12268;52.110;5.548;2023-12-04T09:50:43;7.30;99.90
24085;DHT22;12268;52.110;5.548;2023-12-04T09:53:10;7.30;99.90
24085;DHT22;12268;52.110;5.548;2023-12-04T09:55:37;7.40;99.90
24085;DHT22;12268;52.110;5.548;2023-12-04T09:58:02;7.30;99.90
24085;DHT22;12268;52.110;5.548;2023-12-04T10:00:32;7.30;99.90
24085;DHT22;12268;52.110;5.548;2023-12-04T10:02:58;7.30;99.90
24085;DHT22;12268;52.110;5.548;2023-12-04T10:05:25;7.30;99.90
24085;DHT22;12268;52.110;5.548;2023-12-04T10:07:50;7.20;99.90
24085;DHT22;12268;52.110;5.548;2023-12-04T10:10:16;7.20;99.90
24085;DHT22;12268;52.110;5.548;2023-12-04T10:12:43;7.30;99.90
24085;DHT22;12268;52.110;5.548;2023-12-04T10:15:10;7.50;99.90
24085;DHT22;12268;52.110;5.548;2023-12-04T10:17:41;7.40;99.90
24085;DHT22;12268;52.110;5.548;2023-12-04T10:20:13;7.40;99.90
24085;DHT22;12268;52.110;5.548;2023-12-04T10:22:55;7.30;99.90
24085;DHT22;12268;52.110;5.548;2023-12-04T10:25:22;7.40;99.90
24085;DHT22;12268;52.110;5.548;2023-12-04T10:27:50;7.60;99.90
24085;DHT22;12268;52.110;5.548;2023-12-04T10:30:29;7.70;99.90
24085;DHT22;12268;52.110;5.548;2023-12-04T10:33:04;7.70;99.90
24085;DHT22;12268;52.110;5.548;2023-12-04T10:35:32;7.70;99.90
24085;DHT22;12268;52.110;5.548;2023-12-04T10:37:58;7.70;99.90
24085;DHT22;12268;52.110;5.548;2023-12-04T10:40:30;7.80;99.90
24085;DHT22;12268;52.110;5.548;2023-12-04T10:43:18;7.80;99.90
24085;DHT22;12268;52.110;5.548;2023-12-04T10:45:46;7.80;99.90
24085;DHT22;12268;52.110;5.548;2023-12-04T10:48:13;8.10;99.90
24085;DHT22;12268;52.110;5.548;2023-12-04T10:50:41;7.60;99.90
24085;DHT22;12268;52.110;5.548;2023-12-04T10:53:14;7.70;99.90
24085;DHT22;12268;52.110;5.548;2023-12-04T10:55:41;7.80;99.90
24085;DHT22;12268;52.110;5.548;2023-12-04T10:58:14;7.60;99.90
24085;DHT22;12268;52.110;5.548;2023-12-04T11:00:46;7.50;99.90
24085;DHT22;12268;52.110;5.548;2023-12-04T11:03:19;7.60;99.90
24085;DHT22;12268;52.110;5.548;2023-12-04T11:05:51;7.50;99.90
24085;DHT22;12268;52.110;5.548;2023-12-04T11:08:19;7.70;99.90
24085;DHT22;12268;52.110;5.548;2023-12-04T11:10:56;7.80;99.90
24085;DHT22;12268;52.110;5.548;2023-12-04T11:13:27;7.80;99.90
24085;DHT22;12268;52.110;5.548;2023-12-04T11:16:01;7.80;99.90
24085;DHT22;12268;52.110;5.548;2023-12-04T11:18:31;7.50;99.90
24085;DHT22;12268;52.110;5.548;2023-12-04T11:20:59;7.50;99.90
24085;DHT22;12268;52.110;5.548;2023-12-04T11:47:29;6.80;99.90
24085;DHT22;12268;52.110;5.548;2023-12-04T11:49:57;7.00;99.90
24085;DHT22;12268;52.110;5.548;2023-12-04T11:52:33;7.10;99.90
24085;DHT22;12268;52.110;5.548;2023-12-04T11:55:09;7.30;99.90
24085;DHT22;12268;52.110;5.548;2023-12-04T11:57:36;7.40;99.90
24085;DHT22;12268;52.110;5.548;2023-12-04T12:05:22;6.90;99.90
24085;DHT22;12268;52.110;5.548;2023-12-04T12:07:48;7.00;99.90
24085;DHT22;12268;52.110;5.548;2023-12-04T12:10:16;7.20;99.90
24085;DHT22;12268;52.110;5.548;2023-12-04T12:12:42;7.20;99.90
24085;DHT22;12268;52.110;5.548;2023-12-04T12:15:09;7.40;99.90
24085;DHT22;12268;52.110;5.548;2023-12-04T12:17:35;7.20;99.90
24085;DHT22;12268;52.110;5.548;2023-12-04T12:20:01;7.30;99.90
24085;DHT22;12268;52.110;5.548;2023-12-04T12:22:29;7.20;99.90
24085;DHT22;12268;52.110;5.548;2023-12-04T12:24:54;7.20;99.90
24085;DHT22;12268;52.110;5.548;2023-12-04T12:27:20;7.20;99.90
24085;DHT22;12268;52.110;5.548;2023-12-04T12:29:46;7.30;99.90
24085;DHT22;12268;52.110;5.548;2023-12-04T12:32:11;7.40;99.90
24085;DHT22;12268;52.110;5.548;2023-12-04T12:34:37;7.40;99.90
24085;DHT22;12268;52.110;5.548;2023-12-04T12:37:03;7.40;99.90
24085;DHT22;12268;52.110;5.548;2023-12-04T12:39:31;7.30;99.90
24085;DHT22;12268;52.110;5.548;2023-12-04T12:41:57;7.20;99.90
24085;DHT22;12268;52.110;5.548;2023-12-04T12:44:22;7.00;99.90
24085;DHT22;12268;52.110;5.548;2023-12-04T12:46:48;7.00;99.90
24085;DHT22;12268;52.110;5.548;2023-12-04T12:49:18;7.00;99.90
24085;DHT22;12268;52.110;5.548;2023-12-04T12:51:45;7.00;99.90
24085;DHT22;12268;52.110;5.548;2023-12-04T12:54:11;6.80;99.90
24085;DHT22;12268;52.110;5.548;2023-12-04T12:56:37;6.70;99.90
24085;DHT22;12268;52.110;5.548;2023-12-04T12:59:02;7.00;99.90
24085;DHT22;12268;52.110;5.548;2023-12-04T13:01:32;6.90;99.90
24085;DHT22;12268;52.110;5.548;2023-12-04T13:03:58;7.20;99.90
24085;DHT22;12268;52.110;5.548;2023-12-04T13:06:24;7.20;99.90
24085;DHT22;12268;52.110;5.548;2023-12-04T13:08:49;7.10;99.90
24085;DHT22;12268;52.110;5.548;2023-12-04T13:11:15;7.10;99.90
24085;DHT22;12268;52.110;5.548;2023-12-04T13:13:41;7.00;99.90
24085;DHT22;12268;52.110;5.548;2023-12-04T13:16:06;6.80;99.90
24085;DHT22;12268;52.110;5.548;2023-12-04T13:18:32;6.60;99.90
24085;DHT22;12268;52.110;5.548;2023-12-04T13:21:01;6.60;99.90
24085;DHT22;12268;52.110;5.548;2023-12-04T13:23:27;6.60;99.90
24085;DHT22;12268;52.110;5.548;2023-12-04T13:25:53;6.70;99.90
24085;DHT22;12268;52.110;5.548;2023-12-04T13:28:20;6.40;99.90
24085;DHT22;12268;52.110;5.548;2023-12-04T13:30:46;6.30;99.90
24085;DHT22;12268;52.110;5.548;2023-12-04T13:33:11;6.20;99.90
24085;DHT22;12268;52.110;5.548;2023-12-04T13:35:37;6.00;99.90
24085;DHT22;12268;52.110;5.548;2023-12-04T13:38:03;6.00;99.90
24085;DHT22;12268;52.110;5.548;2023-12-04T13:40:32;6.10;99.90
24085;DHT22;12268;52.110;5.548;2023-12-04T13:43:00;6.40;99.90
24085;DHT22;12268;52.110;5.548;2023-12-04T13:45:44;6.60;99.90
24085;DHT22;12268;52.110;5.548;2023-12-04T13:48:09;6.50;99.90
24085;DHT22;12268;52.110;5.548;2023-12-04T13:50:35;6.50;99.90
24085;DHT22;12268;52.110;5.548;2023-12-04T13:53:00;6.30;99.90
24085;DHT22;12268;52.110;5.548;2023-12-04T13:55:27;6.40;99.90
24085;DHT22;12268;52.110;5.548;2023-12-04T13:58:11;6.30;99.90
24085;DHT22;12268;52.110;5.548;2023-12-04T14:00:57;6.40;99.90
24085;DHT22;12268;52.110;5.548;2023-12-04T14:03:22;6.60;99.90
24085;DHT22;12268;52.110;5.548;2023-12-04T14:05:48;6.80;99.90
24085;DHT22;12268;52.110;5.548;2023-12-04T14:08:14;6.90;99.90
24085;DHT22;12268;52.110;5.548;2023-12-04T14:10:39;6.70;99.90
24085;DHT22;12268;52.110;5.548;2023-12-04T14:13:05;6.60;99.90
24085;DHT22;12268;52.110;5.548;2023-12-04T14:15:31;6.50;99.90
24085;DHT22;12268;52.110;5.548;2023-12-04T14:17:56;6.40;99.90
24085;DHT22;12268;52.110;5.548;2023-12-04T14:20:22;6.40;99.90
24085;DHT22;12268;52.110;5.548;2023-12-04T14:22:48;6.10;99.90
24085;DHT22;12268;52.110;5.548;2023-12-04T14:25:13;6.10;99.90
24085;DHT22;12268;52.110;5.548;2023-12-04T14:27:39;6.10;99.90
24085;DHT22;12268;52.110;5.548;2023-12-04T14:30:09;6.10;99.90
24085;DHT22;12268;52.110;5.548;2023-12-04T14:32:35;6.30;99.90
24085;DHT22;12268;52.110;5.548;2023-12-04T14:35:02;6.30;99.90
24085;DHT22;12268;52.110;5.548;2023-12-04T14:37:28;6.00;99.90
24085;DHT22;12268;52.110;5.548;2023-12-04T14:39:54;6.10;99.90
24085;DHT22;12268;52.110;5.548;2023-12-04T14:42:19;6.10;99.90
24085;DHT22;12268;52.110;5.548;2023-12-04T14:44:45;6.20;99.90
24085;DHT22;12268;52.110;5.548;2023-12-04T14:47:10;6.30;99.90
24085;DHT22;12268;52.110;5.548;2023-12-04T14:49:37;6.30;99.90
24085;DHT22;12268;52.110;5.548;2023-12-04T14:52:03;6.40;99.90
24085;DHT22;12268;52.110;5.548;2023-12-04T14:54:31;6.60;99.90
24085;DHT22;12268;52.110;5.548;2023-12-04T14:57:19;6.30;99.90
24085;DHT22;12268;52.110;5.548;2023-12-04T15:00:12;6.20;99.90
24085;DHT22;12268;52.110;5.548;2023-12-04T15:02:56;6.00;99.90
24085;DHT22;12268;52.110;5.548;2023-12-04T15:05:40;5.80;99.90
24085;DHT22;12268;52.110;5.548;2023-12-04T15:08:06;5.90;99.90
24085;DHT22;12268;52.110;5.548;2023-12-04T15:11:09;5.80;99.90
24085;DHT22;12268;52.110;5.548;2023-12-04T15:13:53;5.70;99.90
24085;DHT22;12268;52.110;5.548;2023-12-04T15:16:19;5.50;99.90
24085;DHT22;12268;52.110;5.548;2023-12-04T15:18:53;5.70;99.90
24085;DHT22;12268;52.110;5.548;2023-12-04T15:21:21;5.90;99.90
24085;DHT22;12268;52.110;5.548;2023-12-04T15:23:47;5.90;99.90
24085;DHT22;12268;52.110;5.548;2023-12-04T15:26:13;6.20;99.90
24085;DHT22;12268;52.110;5.548;2023-12-04T15:28:38;6.40;99.90
24085;DHT22;12268;52.110;5.548;2023-12-04T15:31:04;6.40;99.90
24085;DHT22;12268;52.110;5.548;2023-12-04T15:33:30;6.40;99.90
24085;DHT22;12268;52.110;5.548;2023-12-04T15:35:56;6.40;99.90
24085;DHT22;12268;52.110;5.548;2023-12-04T15:38:22;6.40;99.90
24085;DHT22;12268;52.110;5.548;2023-12-04T15:40:48;6.20;99.90
24085;DHT22;12268;52.110;5.548;2023-12-04T15:43:14;6.20;99.90
24085;DHT22;12268;52.110;5.548;2023-12-04T15:45:39;6.30;99.90
24085;DHT22;12268;52.110;5.548;2023-12-04T15:48:05;6.10;99.90
24085;DHT22;12268;52.110;5.548;2023-12-04T15:50:31;6.10;99.90
24085;DHT22;12268;52.110;5.548;2023-12-04T15:52:57;6.10;99.90
24085;DHT22;12268;52.110;5.548;2023-12-04T15:55:24;6.00;99.90
24085;DHT22;12268;52.110;5.548;2023-12-04T15:57:52;6.00;99.90
24085;DHT22;12268;52.110;5.548;2023-12-04T16:00:29;6.00;99.90
24085;DHT22;12268;52.110;5.548;2023-12-04T16:02:55;6.20;99.90
24085;DHT22;12268;52.110;5.548;2023-12-04T16:05:21;5.90;99.90
24085;DHT22;12268;52.110;5.548;2023-12-04T16:07:46;5.80;99.90
24085;DHT22;12268;52.110;5.548;2023-12-04T16:10:14;5.80;99.90
24085;DHT22;12268;52.110;5.548;2023-12-04T16:12:42;5.70;99.90
24085;DHT22;12268;52.110;5.548;2023-12-04T16:15:09;5.90;99.90
24085;DHT22;12268;52.110;5.548;2023-12-04T16:17:35;5.80;99.90
24085;DHT22;12268;52.110;5.548;2023-12-04T16:20:05;5.70;99.90
24085;DHT22;12268;52.110;5.548;2023-12-04T16:22:36;5.70;99.90
24085;DHT22;12268;52.110;5.548;2023-12-04T16:25:04;5.50;99.90
24085;DHT22;12268;52.110;5.548;2023-12-04T16:27:30;5.50;99.90
24085;DHT22;12268;52.110;5.548;2023-12-04T16:29:55;5.50;99.90
24085;DHT22;12268;52.110;5.548;2023-12-04T16:32:21;5.30;99.90
24085;DHT22;12268;52.110;5.548;2023-12-04T16:34:46;5.30;99.90
24085;DHT22;12268;52.110;5.548;2023-12-04T16:37:12;5.30;99.90
24085;DHT22;12268;52.110;5.548;2023-12-04T16:39:38;5.40;99.90
24085;DHT22;12268;52.110;5.548;2023-12-04T16:42:03;5.30;99.90
24085;DHT22;12268;52.110;5.548;2023-12-04T16:44:30;5.30;99.90
24085;DHT22;12268;52.110;5.548;2023-12-04T16:46:55;5.70;99.90
24085;DHT22;12268;52.110;5.548;2023-12-04T16:49:21;5.50;99.90
24085;DHT22;12268;52.110;5.548;2023-12-04T16:51:48;5.40;99.90
24085;DHT22;12268;52.110;5.548;2023-12-04T16:54:14;5.30;99.90
24085;DHT22;12268;52.110;5.548;2023-12-04T16:56:39;5.30;99.90
24085;DHT22;12268;52.110;5.548;2023-12-04T16:59:05;5.20;99.90
24085;DHT22;12268;52.110;5.548;2023-12-04T17:01:31;5.30;99.90
24085;DHT22;12268;52.110;5.548;2023-12-04T17:03:56;5.30;99.90
24085;DHT22;12268;52.110;5.548;2023-12-04T17:06:22;5.50;99.90
24085;DHT22;12268;52.110;5.548;2023-12-04T17:08:48;5.30;99.90
24085;DHT22;12268;52.110;5.548;2023-12-04T17:11:14;5.20;99.90
24085;DHT22;12268;52.110;5.548;2023-12-04T17:13:40;5.20;99.90
24085;DHT22;12268;52.110;5.548;2023-12-04T17:16:06;5.10;99.90
24085;DHT22;12268;52.110;5.548;2023-12-04T17:18:31;5.10;99.90
24085;DHT22;12268;52.110;5.548;2023-12-04T17:20:58;5.00;99.90
24085;DHT22;12268;52.110;5.548;2023-12-04T17:23:24;5.20;99.90
24085;DHT22;12268;52.110;5.548;2023-12-04T17:25:50;5.30;99.90
24085;DHT22;12268;52.110;5.548;2023-12-04T17:28:16;5.20;99.90
24085;DHT22;12268;52.110;5.548;2023-12-04T17:30:45;5.10;99.90
24085;DHT22;12268;52.110;5.548;2023-12-04T17:33:10;5.00;99.90
24085;DHT22;12268;52.110;5.548;2023-12-04T17:35:36;5.00;99.90
24085;DHT22;12268;52.110;5.548;2023-12-04T17:38:01;5.00;99.90
24085;DHT22;12268;52.110;5.548;2023-12-04T17:40:27;4.80;99.90
24085;DHT22;12268;52.110;5.548;2023-12-04T17:42:53;4.70;99.90
24085;DHT22;12268;52.110;5.548;2023-12-04T17:45:19;5.00;99.90
24085;DHT22;12268;52.110;5.548;2023-12-04T17:47:45;5.00;99.90
24085;DHT22;12268;52.110;5.548;2023-12-04T17:50:10;5.00;99.90
24085;DHT22;12268;52.110;5.548;2023-12-04T17:52:37;5.10;99.90
24085;DHT22;12268;52.110;5.548;2023-12-04T17:55:03;5.20;99.90
24085;DHT22;12268;52.110;5.548;2023-12-04T17:57:28;5.20;99.90
24085;DHT22;12268;52.110;5.548;2023-12-04T17:59:54;5.00;99.90
24085;DHT22;12268;52.110;5.548;2023-12-04T18:02:20;4.90;99.90
24085;DHT22;12268;52.110;5.548;2023-12-04T18:04:46;4.80;99.90
24085;DHT22;12268;52.110;5.548;2023-12-04T18:07:12;4.80;99.90
24085;DHT22;12268;52.110;5.548;2023-12-04T18:09:38;4.90;99.90
24085;DHT22;12268;52.110;5.548;2023-12-04T18:12:05;4.90;99.90
24085;DHT22;12268;52.110;5.548;2023-12-04T20:49:52;5.30;99.90
24085;DHT22;12268;52.110;5.548;2023-12-04T20:52:18;4.70;99.90
24085;DHT22;12268;52.110;5.548;2023-12-04T20:54:43;4.80;99.90
24085;DHT22;12268;52.110;5.548;2023-12-04T20:57:09;5.00;99.90
24085;DHT22;12268;52.110;5.548;2023-12-04T20:59:34;5.20;99.90
24085;DHT22;12268;52.110;5.548;2023-12-04T21:02:02;5.40;99.90
24085;DHT22;12268;52.110;5.548;2023-12-04T22:06:37;5.80;99.90
24085;DHT22;12268;52.110;5.548;2023-12-04T22:09:03;5.80;99.90
24085;DHT22;12268;52.110;5.548;2023-12-04T22:11:28;5.90;99.90
24085;DHT22;12268;52.110;5.548;2023-12-04T22:13:54;5.60;99.90
24085;DHT22;12268;52.110;5.548;2023-12-04T22:16:20;5.60;99.90
24085;DHT22;12268;52.110;5.548;2023-12-04T22:18:47;5.70;99.90
24085;DHT22;12268;52.110;5.548;2023-12-04T22:21:13;5.80;99.90
24085;DHT22;12268;52.110;5.548;2023-12-04T23:12:55;5.70;99.90
24085;DHT22;12268;52.110;5.548;2023-12-04T23:15:22;5.50;99.90
24085;DHT22;12268;52.110;5.548;2023-12-04T23:17:48;5.40;99.90
24085;DHT22;12268;52.110;5.548;2023-12-04T23:20:14;5.40;99.90
24085;DHT22;12268;52.110;5.548;2023-12-04T23:22:40;5.20;99.90
24085;DHT22;12268;52.110;5.548;2023-12-04T23:25:06;5.40;99.90
24085;DHT22;12268;52.110;5.548;2023-12-04T23:27:32;5.50;99.90
24085;DHT22;12268;52.110;5.548;2023-12-04T23:29:57;5.50;99.90
24085;DHT22;12268;52.110;5.548;2023-12-04T23:32:23;5.50;99.90
24085;DHT22;12268;52.110;5.548;2023-12-04T23:34:49;5.60;99.90
24085;DHT22;12268;52.110;5.548;2023-12-04T23:37:14;5.80;99.90
24085;DHT22;12268;52.110;5.548;2023-12-04T23:39:40;5.70;99.90
24085;DHT22;12268;52.110;5.548;2023-12-04T23:42:05;5.70;99.90
24085;DHT22;12268;52.110;5.548;2023-12-04T23:44:31;5.50;99.90
24085;DHT22;12268;52.110;5.548;2023-12-04T23:46:57;5.50;99.90
24085;DHT22;12268;52.110;5.548;2023-12-04T23:49:24;5.40;99.90
24085;DHT22;12268;52.110;5.548;2023-12-04T23:51:49;5.40;99.90
24085;DHT22;12268;52.110;5.548;2023-12-04T23:54:15;5.50;99.90
24085;DHT22;12268;52.110;5.548;2023-12-04T23:56:41;5.60;99.90
24085;DHT22;12268;52.110;5.548;2023-12-04T23:59:06;5.50;99.90
